April Loon II — WDG4420 — position and weather

sailwx.info

Track history (hours):
 
Tides and Currents Weather Stations Pressure Air Temp Water Temp Dewpoint Dewpoint Depression Visibility Wind Speed Wind Dir Waves Ship Positions

April Loon II

Owner: DeJong, Hendrik, Los Osos, CA. More information available from US FCC via Universal Licensing System and Coast Guard Vessel Documentation Center.

Last reported at 2014-Jul-26 01:24 UTC. Time now 2014-Oct-24 07:08 UTC.
Position N 47°34' W 122°37'.
Warning: this ship's position is months out of date.

Length 15 m.

Type: Pleasure craft. MMSI: 367536390.

Date/timePositionNaut miles runAvg speedWind from/ knotsBaromVisibWave heightAir tempDewpointWater temp
2014-Jul-26 01:24N 47°34' W 122°37'6 6.8
2014-Jul-26 00:33N 47°34' W 122°28'0 6.5
2014-Jul-26 00:32N 47°35' W 122°28'3 3.2
2014-Jul-25 23:29N 47°37' W 122°24'2 7.7
2014-Jul-25 23:17N 47°38' W 122°26'5 7.4
2014-Jul-25 22:33N 47°42' W 122°30'2 6.9
2014-Jul-25 22:17N 47°44' W 122°29'3 2.0
2014-Jul-25 20:36N 47°48' W 122°30'0 3.5
2014-Jul-25 20:33N 47°48' W 122°30'2 6.5
2014-Jul-25 20:16N 47°49' W 122°29'6 8.0
2014-Jul-25 19:32N 47°55' W 122°31'31 1.6
2014-Jul-25 00:28N 48°22' W 122°54'8 8.3
2014-Jul-24 23:33N 48°30' W 122°57'4 3.7
2014-Jul-24 22:33N 48°32' W 123°01'1 1.5
2014-Jul-24 21:33N 48°34' W 123°01'25 8.4
2014-Jul-24 18:32N 48°52' W 123°27'9 8.5
2014-Jul-24 17:27N 48°59' W 123°36'16 8.2
2014-Jul-24 15:33N 49°10' W 123°53'8 8.2
2014-Jul-24 14:33N 49°16' W 124°02'4 0.3
2014-Jul-24 01:30N 49°17' W 124°08'5 5.1
2014-Jul-24 00:33N 49°21' W 124°12'9 8.4
2014-Jul-23 23:29N 49°28' W 124°22'8 8.2
2014-Jul-23 22:33N 49°33' W 124°30'9 8.4
2014-Jul-23 21:32N 49°39' W 124°40'11 8.5
2014-Jul-23 20:15N 49°46' W 124°52'6 8.2
2014-Jul-23 19:32N 49°50' W 124°58'  
2014-Jul-20 18:29N 49°49' W 124°34'8 8.2
2014-Jul-20 17:33N 49°45' W 124°24'7 7.4
2014-Jul-20 16:33N 49°45' W 124°12'7 7.4
2014-Jul-20 15:33N 49°47' W 124°02'4 0.2
2014-Jul-19 16:05N 49°45' W 123°56'2 3.0
2014-Jul-19 15:33N 49°46' W 123°58'7 7.5
2014-Jul-19 14:33N 49°40' W 124°05'3 0.2
2014-Jul-18 21:33N 49°38' W 124°02'5 5.0
2014-Jul-18 20:33N 49°33' W 124°00'4 3.7
2014-Jul-18 19:33N 49°30' W 124°03'8 7.9
2014-Jul-18 18:33N 49°23' W 124°08'7 7.6
2014-Jul-18 17:34N 49°16' W 124°02'8 0.4
2014-Jul-17 21:30N 49°10' W 123°55'11 5.3
2014-Jul-17 19:30N 49°03' W 123°43'35 1.7
2014-Jul-16 23:32N 48°33' W 123°18'8 8.5
2014-Jul-16 22:33N 48°27' W 123°09'38 9.5
2014-Jul-16 18:31N 47°57' W 122°34'9 9.6
2014-Jul-16 17:33N 47°48' W 122°29'0 0.4
2014-Jul-16 16:32N 47°47' W 122°30'3 8.0
2014-Jul-16 16:12N 47°45' W 122°28'7 8.4
2014-Jul-16 15:24N 47°40' W 122°35'4 4.5
2014-Jul-16 14:37N 47°37' W 122°35'1 8.1
2014-Jul-16 14:32N 47°36' W 122°35'  
Track history (hours):
 
Tides and Currents Weather Stations Pressure Air Temp Water Temp Dewpoint Dewpoint Depression Visibility Wind Speed Wind Dir Waves Ship Positions

April Loon II

Owner: DeJong, Hendrik, Los Osos, CA. More information available from US FCC via Universal Licensing System and Coast Guard Vessel Documentation Center.

Last reported at 2014-Jul-26 01:24 UTC. Time now 2014-Oct-24 07:08 UTC.
Position N 47°34' W 122°37'.
Warning: this ship's position is months out of date.

Length 15 m.

Type: Pleasure craft. MMSI: 367536390.

Date/timePositionNaut miles runAvg speedWind from/ knotsBaromVisibWave heightAir tempDewpointWater temp
2014-Jul-26 01:24N 47°34' W 122°37'6 6.8
2014-Jul-26 00:33N 47°34' W 122°28'0 6.5
2014-Jul-26 00:32N 47°35' W 122°28'3 3.2
2014-Jul-25 23:29N 47°37' W 122°24'2 7.7
2014-Jul-25 23:17N 47°38' W 122°26'5 7.4
2014-Jul-25 22:33N 47°42' W 122°30'2 6.9
2014-Jul-25 22:17N 47°44' W 122°29'3 2.0
2014-Jul-25 20:36N 47°48' W 122°30'0 3.5
2014-Jul-25 20:33N 47°48' W 122°30'2 6.5
2014-Jul-25 20:16N 47°49' W 122°29'6 8.0
2014-Jul-25 19:32N 47°55' W 122°31'31 1.6
2014-Jul-25 00:28N 48°22' W 122°54'8 8.3
2014-Jul-24 23:33N 48°30' W 122°57'4 3.7
2014-Jul-24 22:33N 48°32' W 123°01'1 1.5
2014-Jul-24 21:33N 48°34' W 123°01'25 8.4
2014-Jul-24 18:32N 48°52' W 123°27'9 8.5
2014-Jul-24 17:27N 48°59' W 123°36'16 8.2
2014-Jul-24 15:33N 49°10' W 123°53'8 8.2
2014-Jul-24 14:33N 49°16' W 124°02'4 0.3
2014-Jul-24 01:30N 49°17' W 124°08'5 5.1
2014-Jul-24 00:33N 49°21' W 124°12'9 8.4
2014-Jul-23 23:29N 49°28' W 124°22'8 8.2
2014-Jul-23 22:33N 49°33' W 124°30'9 8.4
2014-Jul-23 21:32N 49°39' W 124°40'11 8.5
2014-Jul-23 20:15N 49°46' W 124°52'6 8.2
2014-Jul-23 19:32N 49°50' W 124°58'  
2014-Jul-20 18:29N 49°49' W 124°34'8 8.2
2014-Jul-20 17:33N 49°45' W 124°24'7 7.4
2014-Jul-20 16:33N 49°45' W 124°12'7 7.4
2014-Jul-20 15:33N 49°47' W 124°02'4 0.2
2014-Jul-19 16:05N 49°45' W 123°56'2 3.0
2014-Jul-19 15:33N 49°46' W 123°58'7 7.5
2014-Jul-19 14:33N 49°40' W 124°05'3 0.2
2014-Jul-18 21:33N 49°38' W 124°02'5 5.0
2014-Jul-18 20:33N 49°33' W 124°00'4 3.7
2014-Jul-18 19:33N 49°30' W 124°03'8 7.9
2014-Jul-18 18:33N 49°23' W 124°08'7 7.6
2014-Jul-18 17:34N 49°16' W 124°02'8 0.4
2014-Jul-17 21:30N 49°10' W 123°55'11 5.3
2014-Jul-17 19:30N 49°03' W 123°43'35 1.7
2014-Jul-16 23:32N 48°33' W 123°18'8 8.5
2014-Jul-16 22:33N 48°27' W 123°09'38 9.5
2014-Jul-16 18:31N 47°57' W 122°34'9 9.6
2014-Jul-16 17:33N 47°48' W 122°29'0 0.4
2014-Jul-16 16:32N 47°47' W 122°30'3 8.0
2014-Jul-16 16:12N 47°45' W 122°28'7 8.4
2014-Jul-16 15:24N 47°40' W 122°35'4 4.5
2014-Jul-16 14:37N 47°37' W 122°35'1 8.1
2014-Jul-16 14:32N 47°36' W 122°35'  

Dump ship's entire track history